Strona główna
METAR-TAF:

METAR-TAF

Lotnisko :

Dansville Municipal Airport

Dansville, Nowy Jork, Stany Zjednoczone

Szerokość geograficzna: 42-34-10N, Długość geograficzna: 077-42-52W, wysokość: 201 m

Aktualna obserwacja pogody

Raport powstał 1 godzina i 10 minut temu, godzina 22:54 UTC
Wiatr 3 kt od wschód
Temperatura 2°C
Wilgotność 80%
Ciśnienie 1005 hPa
Widzialność: 16.1 km
Zachmurzenie całkowite na wysokości 1900 ft
słaby deszcz

METAR: KDSV 262254Z AUTO 10003KT 10SM -RA OVC019 02/M01 A2968 RMK AO2 UPB37E47RAB47 SLP067 P0002 T00221006

czas: 19:04 (00:04 UTC)


TAF: brakujący

Obserwacja i prognoza pogody dla ponad 4000 lotnisk (raport METAR i TAF).

Dostępne stacje oznaczono żółtymi i czerwonymi punktami na mapie.

Najedź kursorem aby zobaczyć nazwę stacji.

Kliknij aby zobaczyć obserwacje i prognozy pogody.

Aby zmienić mapę: kliknij na zielony przycisk z czarnym krzyżykiem, aby powiększyć; na zielony przycisk z myślnikiem, aby pomniejszyć; na zielone strzałki, aby przejść do map sąsiednich.


METAR-TAF: